sensor_id;sensor_type;location;lat;lon;timestamp;pressure;altitude;pressure_sealevel;temperature;humidity
59103;BME280;43999;51.660;5.616;2023-03-14T00:01:18;98751.09;;;10.54;100.00
59103;BME280;43999;51.660;5.616;2023-03-14T00:04:08;98754.66;;;10.44;100.00
59103;BME280;43999;51.660;5.616;2023-03-14T00:06:54;98744.41;;;10.31;100.00
59103;BME280;43999;51.660;5.616;2023-03-14T00:09:33;98745.19;;;10.21;100.00
59103;BME280;43999;51.660;5.616;2023-03-14T00:12:09;98736.19;;;10.14;100.00
59103;BME280;43999;51.660;5.616;2023-03-14T00:14:53;98750.78;;;10.07;100.00
59103;BME280;43999;51.660;5.616;2023-03-14T00:17:30;98734.09;;;10.08;100.00
59103;BME280;43999;51.660;5.616;2023-03-14T00:19:58;98724.09;;;10.13;100.00
59103;BME280;43999;51.660;5.616;2023-03-14T00:22:53;98735.72;;;10.30;100.00
59103;BME280;43999;51.660;5.616;2023-03-14T00:25:39;98741.53;;;10.34;100.00
59103;BME280;43999;51.660;5.616;2023-03-14T00:28:13;98747.06;;;10.40;100.00
59103;BME280;43999;51.660;5.616;2023-03-14T00:31:02;98748.47;;;10.45;100.00
59103;BME280;43999;51.660;5.616;2023-03-14T00:33:41;98746.41;;;10.48;100.00
59103;BME280;43999;51.660;5.616;2023-03-14T00:36:29;98754.13;;;10.50;100.00
59103;BME280;43999;51.660;5.616;2023-03-14T00:39:08;98761.28;;;10.48;100.00
59103;BME280;43999;51.660;5.616;2023-03-14T00:42:07;98757.00;;;10.47;100.00
59103;BME280;43999;51.660;5.616;2023-03-14T00:45:06;98750.69;;;10.49;100.00
59103;BME280;43999;51.660;5.616;2023-03-14T00:47:54;98764.59;;;10.50;100.00
59103;BME280;43999;51.660;5.616;2023-03-14T00:50:40;98769.84;;;10.50;100.00
59103;BME280;43999;51.660;5.616;2023-03-14T00:53:23;98771.50;;;10.51;100.00
59103;BME280;43999;51.660;5.616;2023-03-14T00:56:14;98778.41;;;10.52;100.00
59103;BME280;43999;51.660;5.616;2023-03-14T00:58:45;98772.31;;;10.51;100.00
59103;BME280;43999;51.660;5.616;2023-03-14T01:01:20;98760.22;;;10.50;100.00
59103;BME280;43999;51.660;5.616;2023-03-14T01:03:55;98754.97;;;10.50;100.00
59103;BME280;43999;51.660;5.616;2023-03-14T01:07:17;98756.47;;;10.53;100.00
59103;BME280;43999;51.660;5.616;2023-03-14T01:10:34;98760.75;;;10.54;100.00
59103;BME280;43999;51.660;5.616;2023-03-14T01:13:16;98758.00;;;10.55;100.00
59103;BME280;43999;51.660;5.616;2023-03-14T01:16:08;98741.44;;;10.55;100.00
59103;BME280;43999;51.660;5.616;2023-03-14T01:18:51;98750.28;;;10.54;100.00
59103;BME280;43999;51.660;5.616;2023-03-14T01:22:08;98746.13;;;10.51;100.00
59103;BME280;43999;51.660;5.616;2023-03-14T01:25:06;98745.44;;;10.49;100.00
59103;BME280;43999;51.660;5.616;2023-03-14T01:27:45;98757.00;;;10.47;100.00
59103;BME280;43999;51.660;5.616;2023-03-14T01:30:18;98746.50;;;10.37;100.00
59103;BME280;43999;51.660;5.616;2023-03-14T01:32:53;98750.56;;;10.20;100.00
59103;BME280;43999;51.660;5.616;2023-03-14T01:36:20;98744.56;;;10.08;100.00
59103;BME280;43999;51.660;5.616;2023-03-14T01:39:30;98737.84;;;10.15;100.00
59103;BME280;43999;51.660;5.616;2023-03-14T01:42:05;98730.31;;;10.22;100.00
59103;BME280;43999;51.660;5.616;2023-03-14T01:48:20;98719.03;;;10.31;100.00
59103;BME280;43999;51.660;5.616;2023-03-14T01:51:11;98721.63;;;10.21;100.00
59103;BME280;43999;51.660;5.616;2023-03-14T01:54:40;98717.59;;;10.08;100.00
59103;BME280;43999;51.660;5.616;2023-03-14T01:57:49;98711.47;;;9.97;100.00
59103;BME280;43999;51.660;5.616;2023-03-14T02:00:43;98714.94;;;9.98;100.00
59103;BME280;43999;51.660;5.616;2023-03-14T02:04:20;98709.88;;;10.06;100.00
59103;BME280;43999;51.660;5.616;2023-03-14T02:07:26;98712.91;;;10.11;100.00
59103;BME280;43999;51.660;5.616;2023-03-14T02:10:25;98710.16;;;10.13;100.00
59103;BME280;43999;51.660;5.616;2023-03-14T02:13:46;98716.38;;;10.12;100.00
59103;BME280;43999;51.660;5.616;2023-03-14T02:16:59;98721.88;;;10.09;100.00
59103;BME280;43999;51.660;5.616;2023-03-14T02:27:13;98712.44;;;9.96;100.00
59103;BME280;43999;51.660;5.616;2023-03-14T02:30:06;98713.53;;;9.94;100.00
59103;BME280;43999;51.660;5.616;2023-03-14T02:33:05;98715.13;;;9.85;100.00
59103;BME280;43999;51.660;5.616;2023-03-14T02:35:53;98708.91;;;9.76;100.00
59103;BME280;43999;51.660;5.616;2023-03-14T02:38:52;98700.16;;;9.66;100.00
59103;BME280;43999;51.660;5.616;2023-03-14T02:41:44;98701.75;;;9.57;100.00
59103;BME280;43999;51.660;5.616;2023-03-14T02:44:34;98687.31;;;9.53;100.00
59103;BME280;43999;51.660;5.616;2023-03-14T02:47:34;98699.75;;;9.61;100.00
59103;BME280;43999;51.660;5.616;2023-03-14T02:50:39;98705.16;;;9.69;100.00
59103;BME280;43999;51.660;5.616;2023-03-14T02:53:48;98700.94;;;9.78;100.00
59103;BME280;43999;51.660;5.616;2023-03-14T02:56:42;98705.66;;;9.84;100.00
59103;BME280;43999;51.660;5.616;2023-03-14T02:59:52;98697.28;;;9.90;100.00
59103;BME280;43999;51.660;5.616;2023-03-14T03:02:46;98692.59;;;9.94;100.00
59103;BME280;43999;51.660;5.616;2023-03-14T03:05:42;98695.78;;;9.97;100.00
59103;BME280;43999;51.660;5.616;2023-03-14T03:08:19;98692.06;;;10.00;100.00
59103;BME280;43999;51.660;5.616;2023-03-14T03:11:08;98697.88;;;10.03;100.00
59103;BME280;43999;51.660;5.616;2023-03-14T03:13:39;98694.28;;;10.04;100.00
59103;BME280;43999;51.660;5.616;2023-03-14T03:16:11;98694.16;;;10.06;100.00
59103;BME280;43999;51.660;5.616;2023-03-14T03:19:13;98698.56;;;10.05;100.00
59103;BME280;43999;51.660;5.616;2023-03-14T03:22:00;98704.63;;;10.06;100.00
59103;BME280;43999;51.660;5.616;2023-03-14T03:24:50;98701.06;;;10.07;100.00
59103;BME280;43999;51.660;5.616;2023-03-14T03:27:30;98687.97;;;10.07;100.00
59103;BME280;43999;51.660;5.616;2023-03-14T03:30:51;98696.66;;;10.08;100.00
59103;BME280;43999;51.660;5.616;2023-03-14T03:33:23;98679.28;;;10.07;100.00
59103;BME280;43999;51.660;5.616;2023-03-14T03:36:04;98685.38;;;10.07;100.00
59103;BME280;43999;51.660;5.616;2023-03-14T03:38:52;98681.22;;;10.04;100.00
59103;BME280;43999;51.660;5.616;2023-03-14T03:43:09;98680.25;;;10.05;100.00
59103;BME280;43999;51.660;5.616;2023-03-14T03:46:10;98688.94;;;10.06;100.00
59103;BME280;43999;51.660;5.616;2023-03-14T03:48:58;98683.00;;;10.04;100.00
59103;BME280;43999;51.660;5.616;2023-03-14T03:51:44;98679.53;;;10.03;100.00
59103;BME280;43999;51.660;5.616;2023-03-14T03:54:27;98673.63;;;10.01;100.00
59103;BME280;43999;51.660;5.616;2023-03-14T03:57:01;98670.88;;;10.03;100.00
59103;BME280;43999;51.660;5.616;2023-03-14T03:59:46;98663.84;;;10.03;100.00
59103;BME280;43999;51.660;5.616;2023-03-14T04:02:28;98661.38;;;10.02;100.00
59103;BME280;43999;51.660;5.616;2023-03-14T04:06:04;98665.09;;;9.99;100.00
59103;BME280;43999;51.660;5.616;2023-03-14T04:09:23;98671.16;;;10.00;100.00
59103;BME280;43999;51.660;5.616;2023-03-14T04:12:32;98664.09;;;10.00;100.00
59103;BME280;43999;51.660;5.616;2023-03-14T04:15:35;98662.47;;;9.99;100.00
59103;BME280;43999;51.660;5.616;2023-03-14T04:18:37;98662.47;;;9.99;100.00
59103;BME280;43999;51.660;5.616;2023-03-14T04:21:25;98663.44;;;9.98;100.00
59103;BME280;43999;51.660;5.616;2023-03-14T04:24:36;98667.13;;;9.96;100.00
59103;BME280;43999;51.660;5.616;2023-03-14T04:27:04;98651.25;;;9.78;100.00
59103;BME280;43999;51.660;5.616;2023-03-14T04:30:00;98674.97;;;9.65;100.00
59103;BME280;43999;51.660;5.616;2023-03-14T04:32:59;98666.13;;;9.56;100.00
59103;BME280;43999;51.660;5.616;2023-03-14T04:35:54;98666.41;;;9.53;100.00
59103;BME280;43999;51.660;5.616;2023-03-14T04:38:54;98665.69;;;9.51;100.00
59103;BME280;43999;51.660;5.616;2023-03-14T04:42:01;98656.75;;;9.54;100.00
59103;BME280;43999;51.660;5.616;2023-03-14T04:45:11;98658.44;;;9.55;100.00
59103;BME280;43999;51.660;5.616;2023-03-14T04:48:30;98650.44;;;9.56;100.00
59103;BME280;43999;51.660;5.616;2023-03-14T04:51:52;98652.34;;;9.54;100.00
59103;BME280;43999;51.660;5.616;2023-03-14T04:54:40;98644.06;;;9.49;100.00
59103;BME280;43999;51.660;5.616;2023-03-14T04:57:08;98642.41;;;9.48;100.00
59103;BME280;43999;51.660;5.616;2023-03-14T04:59:41;98651.22;;;9.47;100.00
59103;BME280;43999;51.660;5.616;2023-03-14T05:02:40;98647.97;;;9.33;100.00
59103;BME280;43999;51.660;5.616;2023-03-14T05:05:24;98636.91;;;9.20;100.00
59103;BME280;43999;51.660;5.616;2023-03-14T05:08:27;98651.56;;;9.11;100.00
59103;BME280;43999;51.660;5.616;2023-03-14T05:11:38;98653.25;;;9.01;100.00
59103;BME280;43999;51.660;5.616;2023-03-14T05:14:29;98664.81;;;8.99;100.00
59103;BME280;43999;51.660;5.616;2023-03-14T05:17:12;98661.59;;;8.95;100.00
59103;BME280;43999;51.660;5.616;2023-03-14T05:20:36;98643.94;;;8.87;100.00
59103;BME280;43999;51.660;5.616;2023-03-14T05:23:24;98647.19;;;8.79;100.00
59103;BME280;43999;51.660;5.616;2023-03-14T05:26:32;98643.56;;;8.71;100.00
59103;BME280;43999;51.660;5.616;2023-03-14T05:29:14;98639.66;;;8.65;100.00
59103;BME280;43999;51.660;5.616;2023-03-14T05:32:05;98628.75;;;8.60;100.00
59103;BME280;43999;51.660;5.616;2023-03-14T05:34:53;98639.69;;;8.54;100.00
59103;BME280;43999;51.660;5.616;2023-03-14T05:37:52;98640.31;;;8.46;100.00
59103;BME280;43999;51.660;5.616;2023-03-14T05:40:59;98635.31;;;8.43;100.00
59103;BME280;43999;51.660;5.616;2023-03-14T05:44:15;98636.25;;;8.42;100.00
59103;BME280;43999;51.660;5.616;2023-03-14T05:47:18;98635.56;;;8.40;100.00
59103;BME280;43999;51.660;5.616;2023-03-14T05:50:21;98625.25;;;8.38;100.00
59103;BME280;43999;51.660;5.616;2023-03-14T05:53:16;98620.97;;;8.37;100.00
59103;BME280;43999;51.660;5.616;2023-03-14T05:56:20;98612.31;;;8.37;100.00
59103;BME280;43999;51.660;5.616;2023-03-14T05:59:25;98609.59;;;8.38;100.00
59103;BME280;43999;51.660;5.616;2023-03-14T06:03:13;98602.44;;;8.40;100.00
59103;BME280;43999;51.660;5.616;2023-03-14T06:06:19;98604.25;;;8.40;100.00
59103;BME280;43999;51.660;5.616;2023-03-14T06:08:47;98610.88;;;8.44;100.00
59103;BME280;43999;51.660;5.616;2023-03-14T06:11:18;98608.03;;;8.47;100.00
59103;BME280;43999;51.660;5.616;2023-03-14T06:13:49;98618.22;;;8.50;100.00
59103;BME280;43999;51.660;5.616;2023-03-14T06:16:19;98617.16;;;8.53;100.00
59103;BME280;43999;51.660;5.616;2023-03-14T06:18:48;98625.81;;;8.53;100.00
59103;BME280;43999;51.660;5.616;2023-03-14T06:21:19;98620.94;;;8.60;100.00
59103;BME280;43999;51.660;5.616;2023-03-14T06:23:50;98621.38;;;8.65;100.00
59103;BME280;43999;51.660;5.616;2023-03-14T06:26:26;98615.78;;;8.70;100.00
59103;BME280;43999;51.660;5.616;2023-03-14T06:28:53;98620.75;;;8.73;100.00
59103;BME280;43999;51.660;5.616;2023-03-14T06:31:23;98626.66;;;8.75;100.00
59103;BME280;43999;51.660;5.616;2023-03-14T06:33:59;98618.84;;;8.75;100.00
59103;BME280;43999;51.660;5.616;2023-03-14T06:36:31;98629.50;;;8.83;100.00
59103;BME280;43999;51.660;5.616;2023-03-14T06:39:00;98624.97;;;8.85;100.00
59103;BME280;43999;51.660;5.616;2023-03-14T06:41:37;98627.47;;;8.87;100.00
59103;BME280;43999;51.660;5.616;2023-03-14T06:44:10;98633.50;;;8.87;100.00
59103;BME280;43999;51.660;5.616;2023-03-14T06:46:38;98631.72;;;8.88;100.00
59103;BME280;43999;51.660;5.616;2023-03-14T06:49:07;98630.19;;;8.85;100.00
59103;BME280;43999;51.660;5.616;2023-03-14T06:51:37;98636.22;;;8.86;100.00
59103;BME280;43999;51.660;5.616;2023-03-14T06:54:10;98635.28;;;8.87;100.00
59103;BME280;43999;51.660;5.616;2023-03-14T06:56:43;98637.91;;;8.87;100.00
59103;BME280;43999;51.660;5.616;2023-03-14T06:59:13;98641.94;;;8.91;100.00
59103;BME280;43999;51.660;5.616;2023-03-14T07:01:50;98645.94;;;8.95;100.00
59103;BME280;43999;51.660;5.616;2023-03-14T07:04:18;98652.81;;;8.96;100.00
59103;BME280;43999;51.660;5.616;2023-03-14T07:06:48;98650.22;;;8.96;100.00
59103;BME280;43999;51.660;5.616;2023-03-14T07:09:16;98653.75;;;8.95;100.00
59103;BME280;43999;51.660;5.616;2023-03-14T07:11:52;98652.00;;;8.95;100.00
59103;BME280;43999;51.660;5.616;2023-03-14T07:14:19;98661.47;;;8.96;100.00
59103;BME280;43999;51.660;5.616;2023-03-14T07:16:48;98656.38;;;8.95;100.00
59103;BME280;43999;51.660;5.616;2023-03-14T07:19:16;98661.72;;;8.93;100.00
59103;BME280;43999;51.660;5.616;2023-03-14T07:21:48;98662.69;;;8.92;100.00
59103;BME280;43999;51.660;5.616;2023-03-14T07:24:25;98668.19;;;8.89;100.00
59103;BME280;43999;51.660;5.616;2023-03-14T07:26:53;98670.06;;;8.87;100.00
59103;BME280;43999;51.660;5.616;2023-03-14T07:29:30;98732.88;;;8.86;100.00
59103;BME280;43999;51.660;5.616;2023-03-14T07:32:01;98732.69;;;8.66;100.00
59103;BME280;43999;51.660;5.616;2023-03-14T07:34:31;98764.03;;;8.32;100.00
59103;BME280;43999;51.660;5.616;2023-03-14T07:37:08;98785.13;;;8.06;100.00
59103;BME280;43999;51.660;5.616;2023-03-14T07:39:38;98788.53;;;7.84;100.00
59103;BME280;43999;51.660;5.616;2023-03-14T07:42:14;98800.56;;;7.63;100.00
59103;BME280;43999;51.660;5.616;2023-03-14T07:45:00;98802.41;;;7.49;100.00
59103;BME280;43999;51.660;5.616;2023-03-14T07:47:30;98810.19;;;7.38;100.00
59103;BME280;43999;51.660;5.616;2023-03-14T07:49:59;98816.78;;;7.31;100.00
59103;BME280;43999;51.660;5.616;2023-03-14T07:52:36;98827.03;;;7.21;100.00
59103;BME280;43999;51.660;5.616;2023-03-14T07:55:24;98833.97;;;7.09;100.00
59103;BME280;43999;51.660;5.616;2023-03-14T07:57:53;98849.31;;;7.01;100.00
59103;BME280;43999;51.660;5.616;2023-03-14T08:00:22;98858.38;;;6.95;100.00
59103;BME280;43999;51.660;5.616;2023-03-14T08:02:52;98862.38;;;6.88;100.00
59103;BME280;43999;51.660;5.616;2023-03-14T08:05:19;98865.41;;;6.82;100.00
59103;BME280;43999;51.660;5.616;2023-03-14T08:07:48;98876.97;;;6.78;100.00
59103;BME280;43999;51.660;5.616;2023-03-14T08:10:18;98882.38;;;6.75;100.00
59103;BME280;43999;51.660;5.616;2023-03-14T08:12:56;98890.41;;;6.72;100.00
59103;BME280;43999;51.660;5.616;2023-03-14T08:15:29;98908.72;;;6.70;100.00
59103;BME280;43999;51.660;5.616;2023-03-14T08:18:00;98914.66;;;6.72;100.00
59103;BME280;43999;51.660;5.616;2023-03-14T08:20:31;98919.03;;;6.72;100.00
59103;BME280;43999;51.660;5.616;2023-03-14T08:23:00;98926.84;;;6.72;100.00
59103;BME280;43999;51.660;5.616;2023-03-14T08:25:29;98932.66;;;6.75;100.00
59103;BME280;43999;51.660;5.616;2023-03-14T08:27:57;98950.78;;;6.77;100.00
59103;BME280;43999;51.660;5.616;2023-03-14T08:30:28;98959.94;;;6.82;100.00
59103;BME280;43999;51.660;5.616;2023-03-14T08:32:58;98955.88;;;6.78;100.00
59103;BME280;43999;51.660;5.616;2023-03-14T08:35:26;98983.88;;;6.88;100.00
59103;BME280;43999;51.660;5.616;2023-03-14T08:37:56;98986.28;;;6.91;100.00
59103;BME280;43999;51.660;5.616;2023-03-14T08:40:24;98984.63;;;6.90;100.00
59103;BME280;43999;51.660;5.616;2023-03-14T08:42:53;99003.88;;;6.87;100.00
59103;BME280;43999;51.660;5.616;2023-03-14T08:45:21;99000.34;;;6.88;100.00
59103;BME280;43999;51.660;5.616;2023-03-14T08:47:51;99020.53;;;6.85;100.00
59103;BME280;43999;51.660;5.616;2023-03-14T08:50:18;99025.84;;;6.83;100.00
59103;BME280;43999;51.660;5.616;2023-03-14T08:52:46;99031.16;;;6.81;100.00
59103;BME280;43999;51.660;5.616;2023-03-14T08:55:16;99037.44;;;6.79;100.00
59103;BME280;43999;51.660;5.616;2023-03-14T08:57:44;99039.50;;;6.74;100.00
59103;BME280;43999;51.660;5.616;2023-03-14T09:00:15;99049.19;;;6.72;100.00
59103;BME280;43999;51.660;5.616;2023-03-14T09:02:43;99058.00;;;6.69;100.00
59103;BME280;43999;51.660;5.616;2023-03-14T09:05:12;99068.44;;;6.69;100.00
59103;BME280;43999;51.660;5.616;2023-03-14T09:07:41;99078.84;;;6.69;100.00
59103;BME280;43999;51.660;5.616;2023-03-14T09:10:10;99088.94;;;6.74;100.00
59103;BME280;43999;51.660;5.616;2023-03-14T09:12:38;99104.38;;;6.77;100.00
59103;BME280;43999;51.660;5.616;2023-03-14T09:15:08;99111.78;;;6.83;100.00
59103;BME280;43999;51.660;5.616;2023-03-14T09:17:45;99122.72;;;6.88;100.00
59103;BME280;43999;51.660;5.616;2023-03-14T09:20:17;99145.41;;;6.86;100.00
59103;BME280;43999;51.660;5.616;2023-03-14T09:22:45;99172.19;;;6.88;100.00
59103;BME280;43999;51.660;5.616;2023-03-14T09:25:14;99214.75;;;6.74;100.00
59103;BME280;43999;51.660;5.616;2023-03-14T09:27:44;99189.25;;;6.52;100.00
59103;BME280;43999;51.660;5.616;2023-03-14T09:30:12;99218.47;;;6.28;100.00
59103;BME280;43999;51.660;5.616;2023-03-14T09:32:41;99210.44;;;6.04;100.00
59103;BME280;43999;51.660;5.616;2023-03-14T09:35:11;99225.16;;;5.89;100.00
59103;BME280;43999;51.660;5.616;2023-03-14T09:37:43;99241.03;;;5.85;100.00
59103;BME280;43999;51.660;5.616;2023-03-14T09:40:15;99259.31;;;5.83;100.00
59103;BME280;43999;51.660;5.616;2023-03-14T09:42:48;99269.44;;;5.88;100.00
59103;BME280;43999;51.660;5.616;2023-03-14T09:45:27;99269.66;;;5.99;100.00
59103;BME280;43999;51.660;5.616;2023-03-14T09:47:59;99279.59;;;6.07;100.00
59103;BME280;43999;51.660;5.616;2023-03-14T09:50:40;99304.22;;;6.16;100.00
59103;BME280;43999;51.660;5.616;2023-03-14T09:53:19;99301.16;;;6.23;100.00
59103;BME280;43999;51.660;5.616;2023-03-14T09:55:50;99315.38;;;6.32;100.00
59103;BME280;43999;51.660;5.616;2023-03-14T09:58:24;99321.78;;;6.41;100.00
59103;BME280;43999;51.660;5.616;2023-03-14T10:00:55;99340.38;;;6.49;100.00
59103;BME280;43999;51.660;5.616;2023-03-14T10:03:25;99347.41;;;6.61;100.00
59103;BME280;43999;51.660;5.616;2023-03-14T10:05:55;99369.47;;;6.56;100.00
59103;BME280;43999;51.660;5.616;2023-03-14T10:08:25;99371.53;;;6.51;100.00
59103;BME280;43999;51.660;5.616;2023-03-14T10:10:53;99373.34;;;6.49;100.00
59103;BME280;43999;51.660;5.616;2023-03-14T10:13:27;99409.31;;;6.56;100.00
59103;BME280;43999;51.660;5.616;2023-03-14T10:16:12;99413.16;;;6.65;100.00
59103;BME280;43999;51.660;5.616;2023-03-14T10:18:46;99434.81;;;6.66;100.00
59103;BME280;43999;51.660;5.616;2023-03-14T10:21:27;99440.84;;;6.66;100.00
59103;BME280;43999;51.660;5.616;2023-03-14T10:24:37;99456.81;;;6.60;100.00
59103;BME280;43999;51.660;5.616;2023-03-14T10:27:28;99467.63;;;6.68;100.00
59103;BME280;43999;51.660;5.616;2023-03-14T10:30:04;99480.19;;;6.76;100.00
59103;BME280;43999;51.660;5.616;2023-03-14T10:32:38;99499.97;;;6.78;100.00
59103;BME280;43999;51.660;5.616;2023-03-14T10:35:25;99505.50;;;6.88;100.00
59103;BME280;43999;51.660;5.616;2023-03-14T10:38:00;99523.53;;;6.91;100.00
59103;BME280;43999;51.660;5.616;2023-03-14T10:40:51;99521.03;;;7.04;100.00
59103;BME280;43999;51.660;5.616;2023-03-14T10:43:34;99516.94;;;7.14;100.00
59103;BME280;43999;51.660;5.616;2023-03-14T10:46:18;99545.22;;;7.21;100.00
59103;BME280;43999;51.660;5.616;2023-03-14T10:49:15;99552.50;;;7.30;100.00
59103;BME280;43999;51.660;5.616;2023-03-14T10:52:31;99555.81;;;7.46;100.00
59103;BME280;43999;51.660;5.616;2023-03-14T10:55:25;99575.72;;;7.62;100.00
59103;BME280;43999;51.660;5.616;2023-03-14T10:57:53;99581.03;;;7.75;100.00
59103;BME280;43999;51.660;5.616;2023-03-14T11:00:42;99592.94;;;7.79;100.00
59103;BME280;43999;51.660;5.616;2023-03-14T11:03:12;99596.31;;;7.81;100.00
59103;BME280;43999;51.660;5.616;2023-03-14T11:06:14;99608.72;;;8.04;100.00
59103;BME280;43999;51.660;5.616;2023-03-14T11:09:23;99618.19;;;8.20;100.00
59103;BME280;43999;51.660;5.616;2023-03-14T11:11:52;99620.13;;;8.31;100.00
59103;BME280;43999;51.660;5.616;2023-03-14T11:14:52;99630.38;;;8.19;100.00
59103;BME280;43999;51.660;5.616;2023-03-14T11:21:58;99688.53;;;7.21;100.00
59103;BME280;43999;51.660;5.616;2023-03-14T11:33:17;99714.13;;;6.02;100.00
59103;BME280;43999;51.660;5.616;2023-03-14T11:36:06;99728.34;;;6.13;100.00
59103;BME280;43999;51.660;5.616;2023-03-14T11:39:15;99722.91;;;6.33;100.00
59103;BME280;43999;51.660;5.616;2023-03-14T11:41:53;99737.75;;;6.47;100.00
59103;BME280;43999;51.660;5.616;2023-03-14T11:44:37;99743.75;;;6.65;100.00
59103;BME280;43999;51.660;5.616;2023-03-14T11:50:26;99755.41;;;6.90;100.00
59103;BME280;43999;51.660;5.616;2023-03-14T11:53:21;99770.25;;;6.88;100.00
59103;BME280;43999;51.660;5.616;2023-03-14T11:55:50;99766.25;;;6.82;100.00
59103;BME280;43999;51.660;5.616;2023-03-14T11:58:31;99782.19;;;6.76;100.00
59103;BME280;43999;51.660;5.616;2023-03-14T12:01:11;99798.16;;;6.70;100.00
59103;BME280;43999;51.660;5.616;2023-03-14T12:04:10;99811.00;;;6.57;100.00
59103;BME280;43999;51.660;5.616;2023-03-14T12:06:49;99814.75;;;6.35;100.00
59103;BME280;43999;51.660;5.616;2023-03-14T12:09:20;99816.22;;;6.23;100.00
59103;BME280;43999;51.660;5.616;2023-03-14T12:12:03;99831.91;;;6.22;100.00
59103;BME280;43999;51.660;5.616;2023-03-14T12:14:37;99831.00;;;6.23;100.00
59103;BME280;43999;51.660;5.616;2023-03-14T12:17:24;99834.38;;;6.41;100.00
59103;BME280;43999;51.660;5.616;2023-03-14T12:20:23;99845.19;;;6.82;100.00
59103;BME280;43999;51.660;5.616;2023-03-14T12:22:56;99854.66;;;7.15;100.00
59103;BME280;43999;51.660;5.616;2023-03-14T12:25:39;99848.34;;;7.51;100.00
59103;BME280;43999;51.660;5.616;2023-03-14T12:28:29;99863.19;;;7.65;100.00
59103;BME280;43999;51.660;5.616;2023-03-14T12:31:36;99861.28;;;7.98;100.00
59103;BME280;43999;51.660;5.616;2023-03-14T12:34:36;99879.06;;;8.21;100.00
59103;BME280;43999;51.660;5.616;2023-03-14T12:37:42;99880.53;;;8.25;97.30
59103;BME280;43999;51.660;5.616;2023-03-14T12:40:26;99871.16;;;8.37;99.28
59103;BME280;43999;51.660;5.616;2023-03-14T12:43:28;99876.97;;;8.57;100.00
59103;BME280;43999;51.660;5.616;2023-03-14T12:48:54;99882.38;;;9.24;98.33
59103;BME280;43999;51.660;5.616;2023-03-14T12:51:41;99869.72;;;9.45;99.95
59103;BME280;43999;51.660;5.616;2023-03-14T12:55:02;99894.50;;;9.52;95.43
59103;BME280;43999;51.660;5.616;2023-03-14T12:58:22;99898.81;;;9.81;91.78
59103;BME280;43999;51.660;5.616;2023-03-14T13:01:19;99919.94;;;10.44;75.03
59103;BME280;43999;51.660;5.616;2023-03-14T13:04:10;99916.78;;;10.64;71.23
59103;BME280;43999;51.660;5.616;2023-03-14T13:07:13;99922.81;;;10.53;71.19
59103;BME280;43999;51.660;5.616;2023-03-14T13:10:23;99939.97;;;10.70;65.98
59103;BME280;43999;51.660;5.616;2023-03-14T13:13:25;99948.56;;;10.72;61.72
59103;BME280;43999;51.660;5.616;2023-03-14T13:16:00;99944.34;;;10.96;61.36
59103;BME280;43999;51.660;5.616;2023-03-14T13:21:37;99960.34;;;11.17;60.79
59103;BME280;43999;51.660;5.616;2023-03-14T13:24:28;99970.84;;;11.54;57.20
59103;BME280;43999;51.660;5.616;2023-03-14T13:27:00;99965.56;;;11.66;54.63
59103;BME280;43999;51.660;5.616;2023-03-14T13:29:51;99978.72;;;11.54;51.23
59103;BME280;43999;51.660;5.616;2023-03-14T13:32:28;99980.63;;;11.52;52.66
59103;BME280;43999;51.660;5.616;2023-03-14T13:34:58;99994.56;;;11.65;52.59
59103;BME280;43999;51.660;5.616;2023-03-14T13:37:27;99993.69;;;11.64;49.58
59103;BME280;43999;51.660;5.616;2023-03-14T13:39:57;100003.53;;;11.74;49.72
59103;BME280;43999;51.660;5.616;2023-03-14T13:42:27;100020.31;;;11.84;48.58
59103;BME280;43999;51.660;5.616;2023-03-14T13:45:05;100022.00;;;12.09;48.74
59103;BME280;43999;51.660;5.616;2023-03-14T13:47:39;100011.13;;;11.90;47.67
59103;BME280;43999;51.660;5.616;2023-03-14T13:50:17;100020.78;;;11.65;46.85
59103;BME280;43999;51.660;5.616;2023-03-14T13:52:56;100033.22;;;11.50;48.28
59103;BME280;43999;51.660;5.616;2023-03-14T13:55:27;100031.31;;;11.52;47.79
59103;BME280;43999;51.660;5.616;2023-03-14T13:57:58;100037.81;;;11.59;48.95
59103;BME280;43999;51.660;5.616;2023-03-14T14:00:29;100040.09;;;11.64;48.00
59103;BME280;43999;51.660;5.616;2023-03-14T14:03:01;100056.38;;;11.56;51.19
59103;BME280;43999;51.660;5.616;2023-03-14T14:05:35;100050.50;;;11.65;48.65
59103;BME280;43999;51.660;5.616;2023-03-14T14:08:24;100059.94;;;11.68;48.04
59103;BME280;43999;51.660;5.616;2023-03-14T14:10:58;100084.22;;;11.83;48.82
59103;BME280;43999;51.660;5.616;2023-03-14T14:13:33;100085.56;;;12.01;47.63
59103;BME280;43999;51.660;5.616;2023-03-14T14:16:03;100091.84;;;12.12;48.35
59103;BME280;43999;51.660;5.616;2023-03-14T14:18:41;100093.13;;;12.06;47.21
59103;BME280;43999;51.660;5.616;2023-03-14T14:21:16;100120.16;;;11.82;44.02
59103;BME280;43999;51.660;5.616;2023-03-14T14:23:45;100118.63;;;11.54;45.72
59103;BME280;43999;51.660;5.616;2023-03-14T14:26:18;100128.59;;;11.36;46.19
59103;BME280;43999;51.660;5.616;2023-03-14T14:28:47;100132.56;;;11.29;47.25
59103;BME280;43999;51.660;5.616;2023-03-14T14:31:32;100145.50;;;11.45;46.57
59103;BME280;43999;51.660;5.616;2023-03-14T14:34:02;100160.28;;;11.59;46.20
59103;BME280;43999;51.660;5.616;2023-03-14T14:36:41;100157.34;;;11.38;44.20
59103;BME280;43999;51.660;5.616;2023-03-14T14:39:28;100178.69;;;10.93;44.37
59103;BME280;43999;51.660;5.616;2023-03-14T14:41:59;100179.66;;;10.65;45.79
59103;BME280;43999;51.660;5.616;2023-03-14T14:44:33;100186.75;;;10.63;44.61
59103;BME280;43999;51.660;5.616;2023-03-14T14:47:03;100198.94;;;10.36;44.93
59103;BME280;43999;51.660;5.616;2023-03-14T14:49:53;100200.13;;;10.02;46.23
59103;BME280;43999;51.660;5.616;2023-03-14T14:52:44;100209.13;;;9.83;48.18
59103;BME280;43999;51.660;5.616;2023-03-14T14:55:19;100212.28;;;9.74;48.90
59103;BME280;43999;51.660;5.616;2023-03-14T14:58:29;100214.16;;;9.86;48.96
59103;BME280;43999;51.660;5.616;2023-03-14T15:01:23;100231.66;;;9.72;49.36